Time,TemperatureF,DewpointF,PressureIn,WindDirection,WindDirectionDegrees,WindSpeedMPH,WindSpeedGustMPH,Humidity,HourlyPrecipIn,Conditions,Clouds,dailyrainin,SoftwareType,DateUTC
2013-01-11 00:00:00,14.0,-99.9,44.89,North,-999,-999.0,-999.0,-999,-99.99,,,0.01,,2013-01-11 07:00:00,
2013-01-11 00:53:00,14.0,-99.9,44.89,North,-999,-999.0,-999.0,-999,-99.99,,,0.01,,2013-01-11 07:53:00,
2013-01-11 01:00:00,10.0,-99.9,-100.00,North,-999,-999.0,-999.0,-999,-99.99,,,0.01,,2013-01-11 08:00:00,
2013-01-11 01:53:00,10.0,-99.9,-100.00,North,-999,-999.0,-999.0,-999,-99.99,,,0.01,,2013-01-11 08:53:00,
2013-01-11 02:00:00,9.0,-99.9,44.89,NNE,21,4.0,28.0,-999,-99.99,,,0.00,,2013-01-11 09:00:00,
2013-01-11 02:53:00,9.0,-99.9,44.89,NNE,21,4.0,28.0,-999,-99.99,,,0.00,,2013-01-11 09:53:00,
2013-01-11 04:00:00,7.0,-99.9,-100.00,North,11,3.0,10.0,-999,-99.99,,,0.00,,2013-01-11 11:00:00,
2013-01-11 04:53:00,7.0,-99.9,-100.00,North,11,3.0,10.0,-999,-99.99,,,0.00,,2013-01-11 11:53:00,
2013-01-11 05:00:00,6.0,-99.9,-100.00,NNW,342,4.0,17.0,-999,-99.99,,,0.00,,2013-01-11 12:00:00,
2013-01-11 05:53:00,6.0,-99.9,-100.00,NNW,342,4.0,17.0,-999,-99.99,,,0.00,,2013-01-11 12:53:00,
2013-01-11 06:00:00,5.0,-99.9,-100.00,NNW,341,4.0,13.0,-999,-99.99,,,0.00,,2013-01-11 13:00:00,
2013-01-11 06:53:00,5.0,-99.9,-100.00,NNW,341,4.0,13.0,-999,-99.99,,,0.00,,2013-01-11 13:53:00,
2013-01-11 07:00:00,4.0,-99.9,44.89,NW,315,5.0,16.0,-999,-99.99,,,-99.99,,2013-01-11 14:00:00,
2013-01-11 07:53:00,4.0,-99.9,44.89,NW,315,5.0,16.0,-999,-99.99,,,-99.99,,2013-01-11 14:53:00,
2013-01-11 09:00:00,4.0,-99.9,-100.00,NW,308,5.0,18.0,-999,-99.99,,,0.01,,2013-01-11 16:00:00,
2013-01-11 10:00:00,5.0,-99.9,44.89,North,-999,-999.0,-999.0,-999,-99.99,,,-99.99,,2013-01-11 17:00:00,
2013-01-11 10:53:00,5.0,-99.9,44.89,North,-999,-999.0,-999.0,-999,-99.99,,,-99.99,,2013-01-11 17:53:00,
2013-01-11 11:00:00,6.0,-99.9,44.89,WNW,289,4.0,24.0,-999,-99.99,,,0.01,,2013-01-11 18:00:00,
2013-01-11 11:53:00,6.0,-99.9,44.89,WNW,289,4.0,24.0,-999,-99.99,,,0.01,,2013-01-11 18:53:00,
2013-01-11 12:00:00,9.0,-99.9,44.89,WNW,296,5.0,24.0,-999,-99.99,,,0.02,,2013-01-11 19:00:00,
2013-01-11 12:54:00,9.0,-99.9,44.89,WNW,296,5.0,24.0,-999,-99.99,,,0.02,,2013-01-11 19:54:00,
2013-01-11 13:00:00,8.0,-99.9,-100.00,WNW,303,5.0,16.0,-999,-99.99,,,0.01,,2013-01-11 20:00:00,
2013-01-11 13:53:00,8.0,-99.9,-100.00,WNW,303,5.0,16.0,-999,-99.99,,,0.01,,2013-01-11 20:53:00,
2013-01-11 14:00:00,9.0,-99.9,-100.00,WNW,300,4.0,12.0,-999,-99.99,,,0.02,,2013-01-11 21:00:00,
2013-01-11 15:00:00,8.0,-99.9,-100.00,North,-999,-999.0,-999.0,-999,-99.99,,,0.02,,2013-01-11 22:00:00,
2013-01-11 15:53:00,8.0,-99.9,-100.00,North,-999,-999.0,-999.0,-999,-99.99,,,0.02,,2013-01-11 22:53:00,
2013-01-11 16:00:00,7.0,-99.9,-100.00,WNW,295,3.0,11.0,-999,-99.99,,,0.02,,2013-01-11 23:00:00,
2013-01-11 16:54:00,7.0,-99.9,-100.00,WNW,295,3.0,11.0,-999,-99.99,,,0.02,,2013-01-11 23:54:00,
2013-01-11 17:00:00,7.0,-99.9,-100.00,WNW,295,3.0,10.0,-999,-99.99,,,0.02,,2013-01-12 00:00:00,
2013-01-11 17:53:00,7.0,-99.9,-100.00,WNW,295,3.0,10.0,-999,-99.99,,,0.02,,2013-01-12 00:53:00,
2013-01-11 18:00:00,5.0,-99.9,-100.00,WNW,298,2.0,8.0,-999,-99.99,,,0.01,,2013-01-12 01:00:00,
2013-01-11 18:53:00,5.0,-99.9,-100.00,WNW,298,2.0,8.0,-999,-99.99,,,0.01,,2013-01-12 01:53:00,
2013-01-11 19:00:00,3.0,-99.9,-100.00,North,-999,-999.0,-999.0,-999,-99.99,,,0.01,,2013-01-12 02:00:00,
2013-01-11 19:53:00,3.0,-99.9,-100.00,North,-999,-999.0,-999.0,-999,-99.99,,,0.01,,2013-01-12 02:53:00,
2013-01-11 20:00:00,-3.0,-99.9,-100.00,WNW,282,1.0,7.0,-999,-99.99,,,0.01,,2013-01-12 03:00:00,
2013-01-11 20:53:00,-3.0,-99.9,-100.00,WNW,282,1.0,7.0,-999,-99.99,,,0.01,,2013-01-12 03:53:00,
2013-01-11 21:00:00,-1.0,-99.9,-100.00,North,-999,-999.0,-999.0,-999,-99.99,,,0.00,,2013-01-12 04:00:00,
2013-01-11 21:53:00,-1.0,-99.9,-100.00,North,-999,-999.0,-999.0,-999,-99.99,,,0.00,,2013-01-12 04:53:00,
2013-01-11 23:00:00,-1.0,-99.9,-100.00,North,-999,-999.0,-999.0,-999,-99.99,,,-99.99,,2013-01-12 06:00:00,
2013-01-11 23:53:00,-1.0,-99.9,-100.00,North,-999,-999.0,-999.0,-999,-99.99,,,-99.99,,2013-01-12 06:53:00,